Weingarten, Missouri
Current Conditions -  °F | °C
As of 2:15 PM on Monday 24 Nov 2014 (Local Time) from KSAR Reporting Station
Overcast Overcast  
Wind Chill: 39°   Ceiling: 5000
Heat Index: 45°   Visibility: 10mi
Dew Point: 31°   Wind: 12mph
Humidity: 58%   Direction: 280°W
Pressure: 29.77"   Gusts: 20mph
Location:  37.9762°N, 90.0499°W
Report Text: KSAR 242015Z AUTO 28010G17KT 10SM SCT045 OVC050 07/M01 A2977 RMK AO2 T00701007
Loading
Personal Weather Stations






























Interactive Weather Map New forecast layout! Learn more

10-Day Weather Forecast

Advertisements
Track Severe Weather on mobile